DRS YLIL-YWBL
Flight info
| Callsign | DRS |
|---|---|
| Flight time | 1h 5m |
| Altitude | 6000 |
| Route | ALP WBES DCT CLS DCT ANG |
| Aircraft | AS50/L-SDFGRY/B2 |
Departure
| Time | 2026-04-22 00:50 |
|---|---|
| Airport | Lilydale Airport (YLIL) |
Arrival
| Time | 2026-04-22 01:55 |
|---|---|
| Airport | Warrnambool Airport (YWBL) |
| Time | Latitude | Longitude | Altitude | Speed | Heading |
|---|---|---|---|---|---|
| 2026-04-22 00:46 | -37.72005 | 145.14220 | 87 ft | 0 kts | 288° |
| 2026-04-22 00:48 | -37.72009 | 145.14220 | 86 ft | 6 kts | 298° |
| 2026-04-22 00:49 | -37.72047 | 145.14203 | 122 ft | 8 kts | 19° |
| 2026-04-22 00:49 | -37.72061 | 145.14203 | 181 ft | 7 kts | 1° |
| 2026-04-22 00:49 | -37.71913 | 145.14201 | 297 ft | 29 kts | 315° |
| 2026-04-22 00:49 | -37.72127 | 145.14068 | 416 ft | 54 kts | 181° |
| 2026-04-22 00:50 | -37.72459 | 145.13824 | 558 ft | 49 kts | 230° |
| 2026-04-22 00:50 | -37.72685 | 145.13572 | 746 ft | 46 kts | 235° |
| 2026-04-22 00:50 | -37.72907 | 145.13215 | 922 ft | 58 kts | 248° |
| 2026-04-22 00:50 | -37.73162 | 145.12801 | 1267 ft | 64 kts | 240° |
| 2026-04-22 00:51 | -37.73502 | 145.12382 | 1565 ft | 73 kts | 236° |
| 2026-04-22 00:51 | -37.73887 | 145.11921 | 1846 ft | 79 kts | 237° |
| 2026-04-22 00:51 | -37.74334 | 145.11363 | 1849 ft | 102 kts | 236° |
| 2026-04-22 00:51 | -37.74868 | 145.10702 | 1833 ft | 112 kts | 233° |
| 2026-04-22 00:52 | -37.75428 | 145.10018 | 1821 ft | 112 kts | 232° |
| 2026-04-22 00:52 | -37.75997 | 145.09319 | 1828 ft | 118 kts | 231° |
| 2026-04-22 00:52 | -37.76604 | 145.08572 | 1821 ft | 124 kts | 232° |
| 2026-04-22 00:52 | -37.77223 | 145.07810 | 1818 ft | 123 kts | 231° |
| 2026-04-22 00:53 | -37.77833 | 145.07058 | 1817 ft | 121 kts | 232° |
| 2026-04-22 00:53 | -37.78432 | 145.06317 | 1821 ft | 120 kts | 232° |
| 2026-04-22 00:53 | -37.79034 | 145.05572 | 1825 ft | 122 kts | 232° |
| 2026-04-22 00:53 | -37.79655 | 145.04803 | 1828 ft | 128 kts | 232° |
| 2026-04-22 00:54 | -37.80301 | 145.04003 | 1822 ft | 130 kts | 233° |
| 2026-04-22 00:54 | -37.80945 | 145.03205 | 1824 ft | 128 kts | 233° |
| 2026-04-22 00:54 | -37.81584 | 145.02415 | 1823 ft | 130 kts | 233° |
| 2026-04-22 00:54 | -37.82229 | 145.01615 | 1816 ft | 129 kts | 233° |
| 2026-04-22 00:55 | -37.82865 | 145.00827 | 1824 ft | 129 kts | 234° |
| 2026-04-22 00:55 | -37.83516 | 145.00019 | 1822 ft | 132 kts | 232° |
| 2026-04-22 00:55 | -37.84830 | 144.98388 | 1822 ft | 134 kts | 234° |
| 2026-04-22 00:56 | -37.85471 | 144.97537 | 1817 ft | 130 kts | 239° |
| 2026-04-22 00:56 | -37.85940 | 144.96600 | 1822 ft | 127 kts | 249° |
| 2026-04-22 00:56 | -37.86376 | 144.95649 | 1813 ft | 122 kts | 251° |
| 2026-04-22 00:56 | -37.86790 | 144.94711 | 1817 ft | 119 kts | 251° |
| 2026-04-22 00:57 | -37.87184 | 144.93796 | 1820 ft | 120 kts | 252° |
| 2026-04-22 00:57 | -37.87579 | 144.92870 | 1818 ft | 119 kts | 251° |
| 2026-04-22 00:57 | -37.87975 | 144.91940 | 1816 ft | 117 kts | 250° |
| 2026-04-22 00:57 | -37.88358 | 144.91039 | 1817 ft | 118 kts | 251° |
| 2026-04-22 00:58 | -37.88746 | 144.90124 | 1819 ft | 119 kts | 252° |
| 2026-04-22 00:58 | -37.89136 | 144.89207 | 1816 ft | 117 kts | 251° |
| 2026-04-22 00:58 | -37.89521 | 144.88301 | 1817 ft | 117 kts | 251° |
| 2026-04-22 00:58 | -37.89904 | 144.87402 | 1818 ft | 116 kts | 252° |
| 2026-04-22 00:59 | -37.90291 | 144.86486 | 1817 ft | 119 kts | 251° |
| 2026-04-22 00:59 | -37.90684 | 144.85554 | 1816 ft | 121 kts | 251° |
| 2026-04-22 00:59 | -37.91082 | 144.84621 | 1816 ft | 120 kts | 252° |
| 2026-04-22 00:59 | -37.91478 | 144.83693 | 1815 ft | 120 kts | 252° |
| 2026-04-22 01:00 | -37.91875 | 144.82754 | 1816 ft | 121 kts | 251° |
| 2026-04-22 01:00 | -37.92273 | 144.81817 | 1816 ft | 120 kts | 251° |
| 2026-04-22 01:00 | -37.92666 | 144.80896 | 1820 ft | 117 kts | 252° |
| 2026-04-22 01:00 | -37.93059 | 144.79990 | 1820 ft | 117 kts | 251° |
| 2026-04-22 01:01 | -37.93456 | 144.79098 | 1819 ft | 116 kts | 251° |
| 2026-04-22 01:01 | -37.93851 | 144.78215 | 1816 ft | 115 kts | 251° |
| 2026-04-22 01:01 | -37.94242 | 144.77325 | 1818 ft | 116 kts | 252° |
| 2026-04-22 01:01 | -37.94632 | 144.76420 | 1813 ft | 117 kts | 251° |
| 2026-04-22 01:02 | -37.95018 | 144.75521 | 1813 ft | 115 kts | 252° |
| 2026-04-22 01:02 | -37.95399 | 144.74630 | 1811 ft | 115 kts | 249° |
| 2026-04-22 01:02 | -37.95775 | 144.73743 | 1811 ft | 114 kts | 250° |
| 2026-04-22 01:02 | -37.96154 | 144.72854 | 1812 ft | 115 kts | 250° |
| 2026-04-22 01:03 | -37.96533 | 144.71960 | 1811 ft | 115 kts | 249° |
| 2026-04-22 01:03 | -37.96909 | 144.71070 | 1812 ft | 115 kts | 250° |
| 2026-04-22 01:03 | -37.97289 | 144.70169 | 1815 ft | 116 kts | 250° |
| 2026-04-22 01:03 | -37.97682 | 144.69278 | 1813 ft | 117 kts | 243° |
| 2026-04-22 01:04 | -37.98301 | 144.68577 | 1815 ft | 122 kts | 223° |
| 2026-04-22 01:04 | -37.99034 | 144.68001 | 1815 ft | 125 kts | 217° |
| 2026-04-22 01:04 | -37.99789 | 144.67459 | 1814 ft | 125 kts | 216° |
| 2026-04-22 01:04 | -38.00544 | 144.66922 | 1813 ft | 124 kts | 216° |
| 2026-04-22 01:05 | -38.01290 | 144.66393 | 1817 ft | 123 kts | 216° |
| 2026-04-22 01:05 | -38.02038 | 144.65863 | 1817 ft | 123 kts | 215° |
| 2026-04-22 01:05 | -38.02791 | 144.65332 | 1817 ft | 125 kts | 216° |
| 2026-04-22 01:05 | -38.03553 | 144.64795 | 1815 ft | 125 kts | 216° |
| 2026-04-22 01:06 | -38.04302 | 144.64268 | 1813 ft | 125 kts | 216° |
| 2026-04-22 01:06 | -38.05063 | 144.63733 | 1814 ft | 125 kts | 215° |
| 2026-04-22 01:06 | -38.05827 | 144.63197 | 1818 ft | 125 kts | 216° |
| 2026-04-22 01:06 | -38.06589 | 144.62663 | 1815 ft | 124 kts | 216° |
| 2026-04-22 01:07 | -38.07346 | 144.62135 | 1817 ft | 125 kts | 216° |
| 2026-04-22 01:07 | -38.08107 | 144.61604 | 1815 ft | 125 kts | 216° |
| 2026-04-22 01:07 | -38.08869 | 144.61071 | 1816 ft | 125 kts | 215° |
| 2026-04-22 01:07 | -38.09632 | 144.60535 | 1816 ft | 125 kts | 217° |
| 2026-04-22 01:08 | -38.10394 | 144.59996 | 1816 ft | 126 kts | 216° |
| 2026-04-22 01:08 | -38.11163 | 144.59453 | 1814 ft | 127 kts | 217° |
| 2026-04-22 01:08 | -38.11932 | 144.58912 | 1815 ft | 126 kts | 215° |
| 2026-04-22 01:08 | -38.12693 | 144.58380 | 1815 ft | 124 kts | 215° |
| 2026-04-22 01:09 | -38.13447 | 144.57852 | 1815 ft | 124 kts | 215° |
| 2026-04-22 01:09 | -38.14201 | 144.57324 | 1816 ft | 124 kts | 216° |
| 2026-04-22 01:09 | -38.14940 | 144.56771 | 1816 ft | 122 kts | 224° |
| 2026-04-22 01:09 | -38.15555 | 144.56030 | 1821 ft | 124 kts | 232° |
| 2026-04-22 01:10 | -38.16159 | 144.55231 | 1804 ft | 125 kts | 234° |
| 2026-04-22 01:10 | -38.16729 | 144.54467 | 2078 ft | 113 kts | 232° |
| 2026-04-22 01:10 | -38.17321 | 144.53761 | 2448 ft | 121 kts | 230° |
| 2026-04-22 01:10 | -38.17934 | 144.53020 | 2757 ft | 122 kts | 231° |
| 2026-04-22 01:11 | -38.18543 | 144.52248 | 3005 ft | 125 kts | 231° |
| 2026-04-22 01:11 | -38.19147 | 144.51441 | 3241 ft | 127 kts | 232° |
| 2026-04-22 01:11 | -38.19745 | 144.50610 | 3509 ft | 128 kts | 232° |
| 2026-04-22 01:11 | -38.20343 | 144.49761 | 3772 ft | 129 kts | 233° |
| 2026-04-22 01:12 | -38.20939 | 144.48905 | 4006 ft | 130 kts | 233° |
| 2026-04-22 01:12 | -38.21536 | 144.48041 | 4230 ft | 130 kts | 233° |
| 2026-04-22 01:12 | -38.22136 | 144.47171 | 4454 ft | 131 kts | 233° |
| 2026-04-22 01:12 | -38.22739 | 144.46296 | 4671 ft | 132 kts | 232° |
| 2026-04-22 01:13 | -38.23347 | 144.45413 | 4873 ft | 133 kts | 232° |
| 2026-04-22 01:13 | -38.23959 | 144.44527 | 5092 ft | 134 kts | 231° |
| 2026-04-22 01:13 | -38.24575 | 144.43635 | 5287 ft | 135 kts | 231° |
| 2026-04-22 01:13 | -38.25193 | 144.42740 | 5519 ft | 135 kts | 230° |
| 2026-04-22 01:14 | -38.25813 | 144.41843 | 5734 ft | 135 kts | 230° |
| 2026-04-22 01:14 | -38.26437 | 144.40941 | 5927 ft | 137 kts | 230° |
| 2026-04-22 01:14 | -38.27065 | 144.40032 | 6140 ft | 137 kts | 230° |
| 2026-04-22 01:14 | -38.27690 | 144.39126 | 6353 ft | 139 kts | 229° |
| 2026-04-22 01:15 | -38.28336 | 144.38189 | 6575 ft | 138 kts | 228° |
| 2026-04-22 01:15 | -38.28973 | 144.37269 | 6745 ft | 139 kts | 227° |
| 2026-04-22 01:15 | -38.29612 | 144.36348 | 6938 ft | 138 kts | 227° |
| 2026-04-22 01:15 | -38.30249 | 144.35429 | 7119 ft | 139 kts | 227° |
| 2026-04-22 01:16 | -38.30890 | 144.34502 | 7298 ft | 139 kts | 227° |
| 2026-04-22 01:16 | -38.31532 | 144.33572 | 7474 ft | 141 kts | 227° |
| 2026-04-22 01:16 | -38.32177 | 144.32636 | 7656 ft | 141 kts | 227° |
| 2026-04-22 01:16 | -38.32821 | 144.31701 | 7845 ft | 140 kts | 227° |
| 2026-04-22 01:17 | -38.33457 | 144.30779 | 8018 ft | 140 kts | 227° |
| 2026-04-22 01:17 | -38.34097 | 144.29849 | 8186 ft | 140 kts | 227° |
| 2026-04-22 01:17 | -38.34742 | 144.28915 | 8337 ft | 141 kts | 226° |
| 2026-04-22 01:17 | -38.35388 | 144.27979 | 8491 ft | 141 kts | 226° |
| 2026-04-22 01:18 | -38.36037 | 144.27038 | 8646 ft | 142 kts | 226° |
| 2026-04-22 01:18 | -38.36685 | 144.26098 | 8812 ft | 141 kts | 227° |
| 2026-04-22 01:18 | -38.37334 | 144.25156 | 8954 ft | 141 kts | 227° |
| 2026-04-22 01:18 | -38.37982 | 144.24216 | 9094 ft | 142 kts | 227° |
| 2026-04-22 01:19 | -38.38419 | 144.23576 | 9169 ft | 142 kts | 228° |
| 2026-04-22 01:19 | -38.39261 | 144.22291 | 9283 ft | 142 kts | 229° |
| 2026-04-22 01:19 | -38.39896 | 144.21319 | 9371 ft | 143 kts | 228° |
| 2026-04-22 01:19 | -38.40320 | 144.20678 | 9433 ft | 143 kts | 228° |
| 2026-04-22 01:20 | -38.40963 | 144.19716 | 9527 ft | 142 kts | 227° |
| 2026-04-22 01:20 | -38.41537 | 144.18689 | 9600 ft | 143 kts | 244° |
| 2026-04-22 01:20 | -38.41713 | 144.17451 | 9687 ft | 143 kts | 271° |
| 2026-04-22 01:20 | -38.41660 | 144.16194 | 9781 ft | 142 kts | 272° |
| 2026-04-22 01:21 | -38.41599 | 144.14933 | 9860 ft | 142 kts | 272° |
| 2026-04-22 01:21 | -38.41533 | 144.13673 | 9940 ft | 143 kts | 273° |
| 2026-04-22 01:21 | -38.41460 | 144.12413 | 10020 ft | 143 kts | 273° |
| 2026-04-22 01:21 | -38.41383 | 144.11151 | 10106 ft | 143 kts | 274° |
| 2026-04-22 01:22 | -38.41304 | 144.09887 | 10181 ft | 143 kts | 273° |
| 2026-04-22 01:22 | -38.41225 | 144.08624 | 10246 ft | 143 kts | 273° |
| 2026-04-22 01:22 | -38.41145 | 144.07361 | 10319 ft | 143 kts | 274° |
| 2026-04-22 01:22 | -38.41065 | 144.06098 | 10384 ft | 143 kts | 274° |
| 2026-04-22 01:23 | -38.40983 | 144.04836 | 10453 ft | 143 kts | 274° |
| 2026-04-22 01:23 | -38.40901 | 144.03575 | 10510 ft | 143 kts | 274° |
| 2026-04-22 01:23 | -38.40820 | 144.02314 | 10567 ft | 143 kts | 274° |
| 2026-04-22 01:23 | -38.40738 | 144.01053 | 10623 ft | 143 kts | 274° |
| 2026-04-22 01:24 | -38.40656 | 143.99793 | 10678 ft | 143 kts | 274° |
| 2026-04-22 01:24 | -38.40574 | 143.98534 | 10741 ft | 142 kts | 273° |
| 2026-04-22 01:24 | -38.40491 | 143.97278 | 10804 ft | 142 kts | 273° |
| 2026-04-22 01:24 | -38.40410 | 143.96026 | 10857 ft | 142 kts | 273° |
| 2026-04-22 01:25 | -38.40329 | 143.94773 | 10910 ft | 142 kts | 273° |
| 2026-04-22 01:25 | -38.40247 | 143.93519 | 10967 ft | 142 kts | 273° |
| 2026-04-22 01:25 | -38.40166 | 143.92266 | 11018 ft | 142 kts | 274° |
| 2026-04-22 01:25 | -38.40085 | 143.91015 | 11068 ft | 142 kts | 274° |
| 2026-04-22 01:26 | -38.40002 | 143.89761 | 11114 ft | 142 kts | 274° |
| 2026-04-22 01:26 | -38.39921 | 143.88508 | 11165 ft | 142 kts | 274° |
| 2026-04-22 01:26 | -38.39839 | 143.87254 | 11210 ft | 142 kts | 274° |
| 2026-04-22 01:26 | -38.39757 | 143.86002 | 11254 ft | 142 kts | 274° |
| 2026-04-22 01:27 | -38.39675 | 143.84748 | 11296 ft | 142 kts | 274° |
| 2026-04-22 01:27 | -38.39592 | 143.83495 | 11342 ft | 142 kts | 274° |
| 2026-04-22 01:27 | -38.39510 | 143.82241 | 11384 ft | 142 kts | 274° |
| 2026-04-22 01:27 | -38.39428 | 143.80989 | 11426 ft | 142 kts | 274° |
| 2026-04-22 01:28 | -38.39346 | 143.79738 | 11465 ft | 142 kts | 274° |
| 2026-04-22 01:28 | -38.39263 | 143.78486 | 11503 ft | 142 kts | 274° |
| 2026-04-22 01:28 | -38.39158 | 143.77197 | 11158 ft | 149 kts | 277° |
| 2026-04-22 01:28 | -38.39024 | 143.75909 | 10773 ft | 147 kts | 278° |
| 2026-04-22 01:29 | -38.38891 | 143.74626 | 10295 ft | 142 kts | 276° |
| 2026-04-22 01:29 | -38.38763 | 143.73412 | 9862 ft | 136 kts | 276° |
| 2026-04-22 01:29 | -38.38641 | 143.72233 | 9429 ft | 132 kts | 277° |
| 2026-04-22 01:29 | -38.38535 | 143.71074 | 8991 ft | 132 kts | 277° |
| 2026-04-22 01:30 | -38.38443 | 143.69924 | 8576 ft | 132 kts | 278° |
| 2026-04-22 01:30 | -38.38357 | 143.68745 | 8222 ft | 129 kts | 277° |
| 2026-04-22 01:30 | -38.38318 | 143.67632 | 8284 ft | 126 kts | 272° |
| 2026-04-22 01:30 | -38.38305 | 143.66475 | 8314 ft | 134 kts | 271° |
| 2026-04-22 01:31 | -38.38293 | 143.65240 | 8288 ft | 143 kts | 272° |
| 2026-04-22 01:31 | -38.38260 | 143.63961 | 8284 ft | 146 kts | 274° |
| 2026-04-22 01:31 | -38.38206 | 143.62661 | 8283 ft | 148 kts | 275° |
| 2026-04-22 01:31 | -38.38136 | 143.61351 | 8283 ft | 149 kts | 275° |
| 2026-04-22 01:32 | -38.38057 | 143.60038 | 8287 ft | 149 kts | 276° |
| 2026-04-22 01:32 | -38.37973 | 143.58724 | 8287 ft | 149 kts | 276° |
| 2026-04-22 01:32 | -38.37886 | 143.57409 | 8287 ft | 149 kts | 276° |
| 2026-04-22 01:32 | -38.37798 | 143.56089 | 8288 ft | 150 kts | 276° |
| 2026-04-22 01:33 | -38.37707 | 143.54768 | 8287 ft | 150 kts | 276° |
| 2026-04-22 01:33 | -38.37618 | 143.53448 | 8286 ft | 149 kts | 276° |
| 2026-04-22 01:33 | -38.37529 | 143.52132 | 8286 ft | 149 kts | 276° |
| 2026-04-22 01:33 | -38.37440 | 143.50817 | 8285 ft | 149 kts | 276° |
| 2026-04-22 01:34 | -38.37350 | 143.49497 | 8285 ft | 149 kts | 277° |
| 2026-04-22 01:34 | -38.37261 | 143.48181 | 8283 ft | 149 kts | 277° |
| 2026-04-22 01:34 | -38.37171 | 143.46868 | 8283 ft | 149 kts | 277° |
| 2026-04-22 01:34 | -38.37081 | 143.45556 | 8283 ft | 148 kts | 277° |
| 2026-04-22 01:35 | -38.36990 | 143.44245 | 8283 ft | 148 kts | 277° |
| 2026-04-22 01:35 | -38.36900 | 143.42935 | 8285 ft | 148 kts | 277° |
| 2026-04-22 01:35 | -38.36810 | 143.41626 | 8285 ft | 148 kts | 277° |
| 2026-04-22 01:35 | -38.36720 | 143.40317 | 8285 ft | 148 kts | 277° |
| 2026-04-22 01:36 | -38.36629 | 143.39004 | 8284 ft | 149 kts | 277° |
| 2026-04-22 01:36 | -38.36540 | 143.37689 | 8282 ft | 149 kts | 276° |
| 2026-04-22 01:36 | -38.36450 | 143.36377 | 8282 ft | 148 kts | 276° |
| 2026-04-22 01:36 | -38.36360 | 143.35074 | 8282 ft | 148 kts | 276° |
| 2026-04-22 01:37 | -38.36269 | 143.33774 | 8281 ft | 147 kts | 277° |
| 2026-04-22 01:37 | -38.36178 | 143.32476 | 8280 ft | 147 kts | 277° |
| 2026-04-22 01:37 | -38.36086 | 143.31180 | 8279 ft | 147 kts | 278° |
| 2026-04-22 01:37 | -38.35994 | 143.29890 | 8279 ft | 146 kts | 277° |
| 2026-04-22 01:38 | -38.35905 | 143.28598 | 8279 ft | 147 kts | 277° |
| 2026-04-22 01:38 | -38.35814 | 143.27305 | 8279 ft | 146 kts | 278° |
| 2026-04-22 01:38 | -38.35724 | 143.26016 | 8279 ft | 146 kts | 278° |
| 2026-04-22 01:38 | -38.35635 | 143.24734 | 8280 ft | 145 kts | 278° |
| 2026-04-22 01:39 | -38.35563 | 143.23418 | 8283 ft | 154 kts | 276° |
| 2026-04-22 01:39 | -38.35495 | 143.22045 | 8265 ft | 155 kts | 277° |
| 2026-04-22 01:39 | -38.35404 | 143.20703 | 8274 ft | 154 kts | 278° |
| 2026-04-22 01:39 | -38.35301 | 143.19354 | 8277 ft | 152 kts | 279° |
| 2026-04-22 01:40 | -38.35201 | 143.18015 | 8276 ft | 152 kts | 279° |
| 2026-04-22 01:40 | -38.35104 | 143.16680 | 8275 ft | 151 kts | 279° |
| 2026-04-22 01:40 | -38.35010 | 143.15345 | 8275 ft | 151 kts | 278° |
| 2026-04-22 01:40 | -38.34915 | 143.14009 | 8275 ft | 152 kts | 278° |
| 2026-04-22 01:41 | -38.34821 | 143.12672 | 8276 ft | 151 kts | 277° |
| 2026-04-22 01:41 | -38.34728 | 143.11336 | 8277 ft | 151 kts | 277° |
| 2026-04-22 01:41 | -38.34633 | 143.10000 | 8277 ft | 152 kts | 277° |
| 2026-04-22 01:41 | -38.34519 | 143.08665 | 8272 ft | 152 kts | 279° |
| 2026-04-22 01:42 | -38.34390 | 143.07332 | 8274 ft | 152 kts | 278° |
| 2026-04-22 01:42 | -38.34269 | 143.06000 | 8274 ft | 151 kts | 278° |
| 2026-04-22 01:42 | -38.34158 | 143.04665 | 8267 ft | 152 kts | 277° |
| 2026-04-22 01:42 | -38.34053 | 143.03319 | 8267 ft | 153 kts | 277° |
| 2026-04-22 01:43 | -38.33953 | 143.01972 | 8268 ft | 153 kts | 277° |
| 2026-04-22 01:43 | -38.33853 | 143.00618 | 8270 ft | 154 kts | 277° |
| 2026-04-22 01:43 | -38.33754 | 142.99265 | 8268 ft | 153 kts | 277° |
| 2026-04-22 01:43 | -38.33658 | 142.97924 | 8269 ft | 152 kts | 278° |
| 2026-04-22 01:44 | -38.33559 | 142.96592 | 8265 ft | 150 kts | 278° |
| 2026-04-22 01:44 | -38.33464 | 142.95269 | 8266 ft | 150 kts | 279° |
| 2026-04-22 01:44 | -38.33369 | 142.93949 | 8266 ft | 150 kts | 279° |
| 2026-04-22 01:44 | -38.33274 | 142.92631 | 8267 ft | 149 kts | 278° |
| 2026-04-22 01:45 | -38.33180 | 142.91318 | 8278 ft | 148 kts | 279° |
| 2026-04-22 01:45 | -38.33070 | 142.90007 | 8086 ft | 149 kts | 281° |
| 2026-04-22 01:45 | -38.32940 | 142.88708 | 7847 ft | 146 kts | 281° |
| 2026-04-22 01:45 | -38.32819 | 142.87439 | 7640 ft | 144 kts | 280° |
| 2026-04-22 01:46 | -38.32709 | 142.86177 | 7424 ft | 143 kts | 280° |
| 2026-04-22 01:46 | -38.32606 | 142.84914 | 7201 ft | 143 kts | 280° |
| 2026-04-22 01:46 | -38.32507 | 142.83655 | 6992 ft | 142 kts | 282° |
| 2026-04-22 01:46 | -38.32412 | 142.82405 | 6781 ft | 141 kts | 281° |
| 2026-04-22 01:47 | -38.32320 | 142.81177 | 6556 ft | 142 kts | 281° |
| 2026-04-22 01:47 | -38.32227 | 142.79931 | 6312 ft | 141 kts | 281° |
| 2026-04-22 01:47 | -38.32136 | 142.78686 | 6063 ft | 141 kts | 282° |
| 2026-04-22 01:47 | -38.32045 | 142.77450 | 5837 ft | 140 kts | 281° |
| 2026-04-22 01:48 | -38.31955 | 142.76226 | 5622 ft | 138 kts | 281° |
| 2026-04-22 01:48 | -38.31866 | 142.75025 | 5420 ft | 135 kts | 280° |
| 2026-04-22 01:48 | -38.31778 | 142.73836 | 5203 ft | 135 kts | 281° |
| 2026-04-22 01:48 | -38.31689 | 142.72646 | 4991 ft | 135 kts | 281° |
| 2026-04-22 01:49 | -38.31601 | 142.71464 | 4784 ft | 133 kts | 280° |
| 2026-04-22 01:49 | -38.31514 | 142.70293 | 4565 ft | 133 kts | 280° |
| 2026-04-22 01:49 | -38.31427 | 142.69124 | 4372 ft | 132 kts | 280° |
| 2026-04-22 01:49 | -38.31340 | 142.67967 | 4150 ft | 132 kts | 281° |
| 2026-04-22 01:50 | -38.31252 | 142.66800 | 3900 ft | 133 kts | 281° |
| 2026-04-22 01:50 | -38.31164 | 142.65626 | 3697 ft | 133 kts | 281° |
| 2026-04-22 01:50 | -38.31076 | 142.64459 | 3516 ft | 132 kts | 281° |
| 2026-04-22 01:50 | -38.30986 | 142.63303 | 3293 ft | 129 kts | 281° |
| 2026-04-22 01:51 | -38.30900 | 142.62182 | 3075 ft | 126 kts | 281° |
| 2026-04-22 01:51 | -38.30817 | 142.61074 | 2821 ft | 125 kts | 282° |
| 2026-04-22 01:51 | -38.30734 | 142.59976 | 2568 ft | 124 kts | 282° |
| 2026-04-22 01:51 | -38.30651 | 142.58878 | 2332 ft | 125 kts | 283° |
| 2026-04-22 01:52 | -38.30568 | 142.57787 | 2137 ft | 122 kts | 285° |
| 2026-04-22 01:52 | -38.30488 | 142.56732 | 1951 ft | 118 kts | 285° |
| 2026-04-22 01:52 | -38.30406 | 142.55675 | 1701 ft | 122 kts | 284° |
| 2026-04-22 01:52 | -38.30331 | 142.54670 | 1741 ft | 110 kts | 285° |
| 2026-04-22 01:53 | -38.30258 | 142.53719 | 1744 ft | 105 kts | 285° |
| 2026-04-22 01:53 | -38.30188 | 142.52808 | 1751 ft | 102 kts | 285° |
| 2026-04-22 01:53 | -38.30119 | 142.51913 | 1751 ft | 101 kts | 286° |
| 2026-04-22 01:53 | -38.30051 | 142.51028 | 1752 ft | 100 kts | 286° |
| 2026-04-22 01:54 | -38.29983 | 142.50148 | 1752 ft | 100 kts | 287° |
| 2026-04-22 01:54 | -38.29916 | 142.49268 | 1754 ft | 100 kts | 287° |
| 2026-04-22 01:54 | -38.29848 | 142.48393 | 1751 ft | 98 kts | 287° |
| 2026-04-22 01:54 | -38.29830 | 142.47572 | 1511 ft | 88 kts | 276° |
| 2026-04-22 01:55 | -38.29989 | 142.46875 | 1108 ft | 76 kts | 270° |
| 2026-04-22 01:55 | -38.30146 | 142.46295 | 823 ft | 66 kts | 272° |
| 2026-04-22 01:55 | -38.30274 | 142.45793 | 571 ft | 49 kts | 289° |
| 2026-04-22 01:55 | -38.30239 | 142.45487 | 381 ft | 29 kts | 326° |
| 2026-04-22 01:56 | -38.30137 | 142.45328 | 301 ft | 19 kts | 322° |
| 2026-04-22 01:56 | -38.30051 | 142.45233 | 281 ft | 15 kts | 320° |
| 2026-04-22 01:56 | -38.29963 | 142.45129 | 275 ft | 22 kts | 319° |
| 2026-04-22 01:56 | -38.29856 | 142.45013 | 259 ft | 14 kts | 316° |
| 2026-04-22 01:57 | -38.29852 | 142.44935 | 238 ft | 4 kts | 234° |
| 2026-04-22 01:57 | -38.29859 | 142.44923 | 234 ft | 0 kts | 231° |
| 2026-04-22 02:04 | -38.29994 | 142.45083 | 232 ft | 0 kts | 241° |
| 2026-04-22 02:05 | -38.29909 | 142.44964 | 231 ft | 0 kts | 258° |
| 2026-04-22 02:05 | -38.29933 | 142.44980 | 231 ft | 0 kts | 250° |